ADDS TAF Data INFO
IDs: Format: Raw Decoded Include METARs

Data at: 2315 UTC 19 Jul 2018

KPVW 192255Z AUTO 14009G17KT 10SM CLR 39/05 A2994 RMK AO2 T03880048

KPVW 191720Z 1918/2018 20011KT P6SM SKC